Augrain, France

12:35 PM CET on February 25, 2018 (GMT +0100)
La Grimaudiere,Puceul,Loire Atlantique,France | | Change Station

Elev 203 ft 47.53 °N, 1.61 °W | Updated 2 minutes ago

Clear
Clear
39.9 °F
Feels Like 38 °F
N
3.1
Wind Variable Wind from NE
Gusts 6.0 mph

Today
High -- | Low -- °F
--% Chance of Precip.
Yesterday
High -- | Low -- °F
Precip. -- in
Pressure 30.06 in
Visibility 6.2 miles
Clouds
Windchill 38 °F
Dew Point -12 °F
Humidity 10%
Rainfall 0.00 in
Snow Depth Not available.
7:54 AM 6:45 PM
Waxing Gibbous, 74% visible
METAR LFRS 251130Z AUTO 05012KT 020V080 9999 NSC 04/M06 Q1018 TEMPO 06015G25KT
Pressure 30.06 in
Visibility 6.2 miles
Clouds
Windchill 38 °F
Dew Point -12 °F
Humidity 10%
Rainfall 0.00 in
Snow Depth Not available.
7:54 AM 6:45 PM
Waxing Gibbous, 74% visible
METAR LFRS 251130Z AUTO 05012KT 020V080 9999 NSC 04/M06 Q1018 TEMPO 06015G25KT

Get Severe Weather Alerts

Thanks for signing up!

Be on the lookout for a verification email in your inbox.

You'll start receiving the daily forecast at 6 AM.

×

10-Day Weather Forecast

×

Almanac

Astronomy

Feb. 25, 2018 Rise Set
Actual Time
Civil Twilight
Nautical Twilight
Astronomical Twilight
Moon
Length of Visible Light
Length of Day
Tomorrow will be .
, % of the Moon is Illuminated

Today's Extremes

Country Highs Country Lows

Community

WunderPhotos

Category 6

Welcome to Category 6. This is the collective home for Weather Underground's featured writeups by Dr. Jeff Masters (right), Bob Henson (left), Chris Burt, and other regular contributors.

Nearby

Air Quality

  Air Quality AQ Index Pollutant
Not available.

Snow Depth

Station Depth Elevation

Earthquake Activity

City Distance Mag. Time & Date
Minimum magnitude displayed is 2.5.

Coastal Water Temperatures

Place Temperature

Stations

Nearby Weather Stations

Station Location Temp. Windchill Dew Point Humidity Wind Precip. Elev Updated Type